Time;durP1;ratioP1;P1;durP2;ratioP2;P2;SDS_P1;SDS_P2;PMS_P1;PMS_P2;Temp;Humidity;BMP_temperature;BMP_pressure;BME280_temperature;BME280_humidity;BME280_pressure;Samples;Min_cycle;Max_cycle;Signal;HPM_P1;HPM_P2
2023/09/22 00:00:59;;;;;;;2.10;0.80;;;;;;;;;;5054578;28;20477;-80
2023/09/22 00:03:27;;;;;;;4.43;1.10;;;;;;;;;;5055433;28;20460;-80
2023/09/22 00:05:55;;;;;;;3.07;0.90;;;;;;;;;;5055382;28;20483;-80
2023/09/22 00:08:25;;;;;;;2.97;1.10;;;;;;;;;;5053382;28;20480;-80
2023/09/22 00:10:52;;;;;;;2.17;0.70;;;;;;;;;;5054925;28;20528;-80
2023/09/22 00:13:19;;;;;;;1.80;0.70;;;;;;;;;;5054930;28;20442;-79
2023/09/22 00:15:46;;;;;;;2.53;1.10;;;;;;;;;;5055221;28;20437;-80
2023/09/22 00:18:14;;;;;;;2.13;0.70;;;;;;;;;;5053970;28;20494;-80
2023/09/22 00:20:41;;;;;;;2.03;0.90;;;;;;;;;;5035115;28;20496;-80
2023/09/22 00:23:10;;;;;;;2.70;0.80;;;;;;;;;;5035273;28;20442;-80
2023/09/22 00:25:37;;;;;;;2.40;0.80;;;;;;;;;;5034727;28;20442;-81
2023/09/22 00:28:06;;;;;;;2.63;0.70;;;;;;;;;;5034471;28;20544;-80
2023/09/22 00:30:34;;;;;;;2.00;0.73;;;;;;;;;;5034792;28;20451;-81
2023/09/22 00:33:04;;;;;;;2.00;0.90;;;;;;;;;;5034521;28;20434;-80
2023/09/22 00:35:31;;;;;;;2.33;0.97;;;;;;;;;;5034803;28;20426;-80
2023/09/22 00:37:59;;;;;;;2.37;0.70;;;;;;;;;;5034832;28;20504;-80
2023/09/22 00:40:28;;;;;;;1.90;0.77;;;;;;;;;;5034368;28;20538;-80
2023/09/22 00:43:11;;;;;;;2.50;1.00;;;;;;;;;;5034143;28;21006;-80
2023/09/22 00:45:43;;;;;;;2.10;0.80;;;;;;;;;;5034590;28;20442;-79
2023/09/22 00:48:21;;;;;;;2.23;1.10;;;;;;;;;;5034180;28;20986;-80
2023/09/22 00:50:49;;;;;;;2.37;0.70;;;;;;;;;;5034209;28;20952;-80
2023/09/22 00:53:16;;;;;;;2.13;0.80;;;;;;;;;;5034210;28;20434;-80
2023/09/22 00:55:46;;;;;;;2.30;0.90;;;;;;;;;;5034476;28;20512;-80
2023/09/22 00:58:13;;;;;;;2.43;1.17;;;;;;;;;;5033935;28;20442;-80
2023/09/22 01:00:42;;;;;;;3.53;1.20;;;;;;;;;;5034195;28;20516;-80
2023/09/22 01:03:09;;;;;;;2.67;0.90;;;;;;;;;;5034221;28;20438;-81
2023/09/22 01:05:36;;;;;;;2.30;0.83;;;;;;;;;;5033952;28;20438;-80
2023/09/22 01:08:04;;;;;;;2.33;0.80;;;;;;;;;;5033884;28;20473;-80
2023/09/22 01:10:36;;;;;;;2.60;0.97;;;;;;;;;;5033833;28;20982;-80
2023/09/22 01:13:05;;;;;;;3.13;0.90;;;;;;;;;;5033891;28;20414;-80
2023/09/22 01:15:34;;;;;;;2.97;1.20;;;;;;;;;;5035135;28;20445;-80
2023/09/22 01:18:01;;;;;;;2.10;0.70;;;;;;;;;;5034095;28;20848;-80
2023/09/22 01:20:28;;;;;;;5.33;0.90;;;;;;;;;;5033825;28;20876;-80
2023/09/22 01:22:57;;;;;;;4.40;0.90;;;;;;;;;;5033464;28;21010;-80
2023/09/22 01:25:24;;;;;;;1.80;0.70;;;;;;;;;;5033937;28;20435;-80
2023/09/22 01:27:52;;;;;;;2.00;0.80;;;;;;;;;;5033870;28;20477;-80
2023/09/22 01:30:19;;;;;;;3.07;0.90;;;;;;;;;;5033761;28;20541;-80
2023/09/22 01:32:46;;;;;;;2.10;1.00;;;;;;;;;;5033728;28;20434;-80
2023/09/22 01:35:14;;;;;;;2.20;0.90;;;;;;;;;;5035810;28;20715;-80
2023/09/22 01:37:52;;;;;;;2.43;0.90;;;;;;;;;;5052944;28;20544;-80
2023/09/22 01:40:20;;;;;;;2.40;0.80;;;;;;;;;;5053082;28;20920;-79
2023/09/22 01:42:48;;;;;;;2.13;0.90;;;;;;;;;;5053358;28;20548;-80
2023/09/22 01:45:15;;;;;;;2.30;0.83;;;;;;;;;;5053050;28;21013;-80
2023/09/22 01:47:42;;;;;;;2.53;0.93;;;;;;;;;;5053076;28;20523;-80
2023/09/22 01:50:10;;;;;;;2.17;0.80;;;;;;;;;;5053557;28;20437;-79
2023/09/22 01:52:38;;;;;;;2.13;0.80;;;;;;;;;;5051642;28;20495;-80
2023/09/22 01:55:05;;;;;;;1.97;0.80;;;;;;;;;;5053268;28;20437;-80
2023/09/22 01:57:34;;;;;;;2.77;1.00;;;;;;;;;;5053235;28;20472;-80
2023/09/22 02:00:10;;;;;;;2.43;1.03;;;;;;;;;;5053367;28;20470;-80
2023/09/22 02:02:42;;;;;;;2.33;0.83;;;;;;;;;;5053335;28;20814;-80
2023/09/22 02:05:11;;;;;;;2.47;0.87;;;;;;;;;;5039219;28;20461;-80
2023/09/22 02:07:38;;;;;;;2.00;0.80;;;;;;;;;;5033267;28;20482;-80
2023/09/22 02:10:06;;;;;;;3.57;1.00;;;;;;;;;;5032995;28;20446;-81
2023/09/22 02:12:35;;;;;;;2.33;0.80;;;;;;;;;;5033251;28;20511;-80
2023/09/22 02:15:02;;;;;;;2.40;1.00;;;;;;;;;;5032919;28;20434;-80
2023/09/22 02:17:31;;;;;;;2.93;1.43;;;;;;;;;;5032826;28;20503;-81
2023/09/22 02:19:58;;;;;;;2.77;0.90;;;;;;;;;;5033265;28;20534;-81
2023/09/22 02:22:26;;;;;;;2.43;0.93;;;;;;;;;;5033229;28;20492;-80
2023/09/22 02:24:53;;;;;;;2.17;0.90;;;;;;;;;;5034999;28;20504;-78
2023/09/22 02:27:20;;;;;;;2.43;1.00;;;;;;;;;;5052722;28;20502;-81
2023/09/22 02:29:52;;;;;;;2.30;0.80;;;;;;;;;;5036712;28;20442;-81
2023/09/22 02:32:19;;;;;;;2.93;1.30;;;;;;;;;;5035645;28;20506;-79
2023/09/22 02:34:46;;;;;;;2.67;0.80;;;;;;;;;;5036642;28;20484;-81
2023/09/22 02:37:14;;;;;;;2.10;0.90;;;;;;;;;;5036432;28;20434;-81
2023/09/22 02:39:41;;;;;;;3.70;1.33;;;;;;;;;;5036601;28;20449;-80
2023/09/22 02:42:09;;;;;;;4.83;1.00;;;;;;;;;;5036407;28;20468;-81
2023/09/22 02:44:36;;;;;;;3.60;1.10;;;;;;;;;;5036161;28;20442;-80
2023/09/22 02:47:05;;;;;;;2.03;1.00;;;;;;;;;;5036296;28;20496;-81
2023/09/22 02:49:32;;;;;;;2.47;0.93;;;;;;;;;;5036486;28;20560;-81
2023/09/22 02:51:59;;;;;;;2.23;0.73;;;;;;;;;;5036194;28;20442;-81
2023/09/22 02:54:26;;;;;;;3.00;1.50;;;;;;;;;;5040652;28;20437;-81
2023/09/22 02:56:54;;;;;;;2.87;1.17;;;;;;;;;;5056388;28;20841;-81
2023/09/22 02:59:22;;;;;;;3.97;1.20;;;;;;;;;;5056327;28;20785;-82
2023/09/22 03:01:49;;;;;;;3.83;1.27;;;;;;;;;;5056056;28;20504;-81
2023/09/22 03:04:18;;;;;;;3.50;1.50;;;;;;;;;;5056449;28;20433;-81
2023/09/22 03:06:45;;;;;;;4.00;1.17;;;;;;;;;;5056376;28;20910;-81
2023/09/22 03:09:14;;;;;;;3.40;1.00;;;;;;;;;;5050444;28;21001;-81
2023/09/22 03:11:42;;;;;;;5.33;1.77;;;;;;;;;;5035737;28;20929;-81
2023/09/22 03:14:09;;;;;;;2.90;1.27;;;;;;;;;;5035828;28;20438;-81
2023/09/22 03:16:37;;;;;;;2.20;1.07;;;;;;;;;;5040777;28;20503;-81
2023/09/22 03:19:04;;;;;;;2.47;0.90;;;;;;;;;;5055916;28;20524;-81
2023/09/22 03:21:33;;;;;;;5.87;1.77;;;;;;;;;;5042868;28;20441;-81
2023/09/22 03:24:02;;;;;;;3.23;1.00;;;;;;;;;;5035942;28;20499;-82
2023/09/22 03:26:30;;;;;;;3.67;1.40;;;;;;;;;;5035890;28;20795;-81
2023/09/22 03:29:00;;;;;;;2.70;1.30;;;;;;;;;;5035392;28;21010;-81
2023/09/22 03:31:27;;;;;;;2.17;1.03;;;;;;;;;;5035798;28;20517;-82
2023/09/22 03:33:55;;;;;;;5.03;0.90;;;;;;;;;;5035375;28;20488;-82
2023/09/22 03:36:22;;;;;;;5.50;1.53;;;;;;;;;;5035794;28;20488;-82
2023/09/22 03:38:51;;;;;;;3.97;1.93;;;;;;;;;;5035433;28;20497;-82
2023/09/22 03:41:22;;;;;;;3.63;1.17;;;;;;;;;;5035319;28;20488;-82
2023/09/22 03:43:49;;;;;;;2.77;1.10;;;;;;;;;;5035328;28;20434;-82
2023/09/22 03:46:17;;;;;;;2.70;1.10;;;;;;;;;;5041826;28;20441;-82
2023/09/22 03:48:44;;;;;;;4.20;1.47;;;;;;;;;;5054972;28;20523;-81
2023/09/22 03:51:11;;;;;;;3.03;1.30;;;;;;;;;;5055385;28;20433;-81
2023/09/22 03:53:38;;;;;;;5.33;2.30;;;;;;;;;;5054933;28;20491;-81
2023/09/22 03:56:09;;;;;;;3.63;1.47;;;;;;;;;;5049580;28;20447;-82
2023/09/22 03:58:36;;;;;;;2.50;1.30;;;;;;;;;;5035389;28;20431;-81
2023/09/22 04:01:07;;;;;;;3.03;1.30;;;;;;;;;;5035055;28;20469;-81
2023/09/22 04:03:34;;;;;;;2.83;1.60;;;;;;;;;;5034835;28;20430;-81
2023/09/22 04:06:04;;;;;;;3.03;1.23;;;;;;;;;;5035164;28;20434;-81
2023/09/22 04:08:31;;;;;;;4.63;1.37;;;;;;;;;;5035084;28;20569;-82
2023/09/22 04:11:02;;;;;;;2.30;0.83;;;;;;;;;;5035978;28;20835;-81
2023/09/22 04:13:30;;;;;;;4.07;1.37;;;;;;;;;;5034973;28;20422;-81
2023/09/22 04:16:01;;;;;;;2.40;0.93;;;;;;;;;;5034630;28;20515;-80
2023/09/22 04:18:29;;;;;;;2.83;1.10;;;;;;;;;;5034787;28;20492;-81
2023/09/22 04:20:57;;;;;;;2.77;1.27;;;;;;;;;;5034825;28;20434;-80
2023/09/22 04:23:25;;;;;;;4.17;1.20;;;;;;;;;;5034494;28;20870;-81
2023/09/22 04:25:54;;;;;;;2.50;1.00;;;;;;;;;;5034499;28;20434;-80
2023/09/22 04:28:24;;;;;;;2.93;1.70;;;;;;;;;;5034764;28;20502;-80
2023/09/22 04:30:54;;;;;;;4.90;2.27;;;;;;;;;;5034912;28;20430;-80
2023/09/22 04:33:22;;;;;;;5.47;1.63;;;;;;;;;;5034554;28;20824;-81
2023/09/22 04:35:50;;;;;;;3.97;1.57;;;;;;;;;;5034212;28;20446;-81
2023/09/22 04:38:18;;;;;;;3.40;1.30;;;;;;;;;;5046802;28;20446;-80
2023/09/22 04:40:47;;;;;;;2.80;1.20;;;;;;;;;;5052555;28;20932;-80
2023/09/22 04:43:14;;;;;;;2.57;0.93;;;;;;;;;;5054377;28;20434;-80
2023/09/22 04:45:43;;;;;;;2.57;1.17;;;;;;;;;;5054420;28;20479;-80
2023/09/22 04:48:13;;;;;;;3.03;1.50;;;;;;;;;;5054221;28;20923;-80
2023/09/22 04:50:40;;;;;;;3.57;1.20;;;;;;;;;;5054168;28;20437;-80
2023/09/22 04:53:08;;;;;;;3.87;1.57;;;;;;;;;;5053737;28;20462;-80
2023/09/22 04:55:36;;;;;;;3.13;1.30;;;;;;;;;;5053199;28;20433;-81
2023/09/22 04:58:04;;;;;;;3.00;2.70;;;;;;;;;;5053579;28;20450;-80
2023/09/22 05:00:33;;;;;;;3.10;1.50;;;;;;;;;;5053707;28;20531;-80
2023/09/22 05:03:01;;;;;;;5.17;0.93;;;;;;;;;;5053931;28;20503;-80
2023/09/22 05:05:30;;;;;;;2.73;1.37;;;;;;;;;;5053859;28;20912;-80
2023/09/22 05:07:59;;;;;;;3.90;1.10;;;;;;;;;;5046426;28;20445;-80
2023/09/22 05:10:27;;;;;;;3.13;1.47;;;;;;;;;;5033851;28;20506;-80
2023/09/22 05:12:54;;;;;;;2.93;1.53;;;;;;;;;;5031729;28;20992;-80
2023/09/22 05:15:22;;;;;;;2.77;1.30;;;;;;;;;;5033038;28;20855;-80
2023/09/22 05:17:49;;;;;;;6.40;1.53;;;;;;;;;;5033262;28;20435;-80
2023/09/22 05:20:20;;;;;;;3.10;1.20;;;;;;;;;;5033207;28;20438;-80
2023/09/22 05:22:48;;;;;;;2.77;1.10;;;;;;;;;;5032865;28;20536;-79
2023/09/22 05:25:16;;;;;;;2.10;1.00;;;;;;;;;;5032938;28;20484;-80
2023/09/22 05:27:45;;;;;;;2.67;1.10;;;;;;;;;;5032695;28;20442;-80
2023/09/22 05:30:15;;;;;;;2.47;1.07;;;;;;;;;;5032963;28;20528;-79
2023/09/22 05:32:43;;;;;;;3.77;2.00;;;;;;;;;;5032678;28;20504;-80
2023/09/22 05:35:10;;;;;;;3.33;1.50;;;;;;;;;;5042011;28;20528;-80
2023/09/22 05:37:38;;;;;;;2.40;1.27;;;;;;;;;;5052653;28;20448;-80
2023/09/22 05:40:11;;;;;;;3.30;1.77;;;;;;;;;;5052755;28;20527;-80
2023/09/22 05:42:39;;;;;;;4.67;1.80;;;;;;;;;;5052510;28;20426;-80
2023/09/22 05:45:08;;;;;;;3.67;1.87;;;;;;;;;;5052526;28;20470;-80
2023/09/22 05:47:37;;;;;;;12.37;6.07;;;;;;;;;;5042589;28;20441;-79
2023/09/22 05:50:05;;;;;;;10.60;5.33;;;;;;;;;;5048207;28;20828;-80
2023/09/22 05:52:33;;;;;;;6.47;3.20;;;;;;;;;;5046557;28;20439;-79
2023/09/22 05:55:00;;;;;;;6.00;2.63;;;;;;;;;;5046177;28;20441;-79
2023/09/22 05:57:29;;;;;;;7.57;2.77;;;;;;;;;;5051658;28;20951;-79
2023/09/22 05:59:57;;;;;;;5.17;2.63;;;;;;;;;;5052368;28;20465;-79
2023/09/22 06:02:25;;;;;;;3.47;1.73;;;;;;;;;;5051989;28;20444;-78
2023/09/22 06:04:55;;;;;;;2.90;1.17;;;;;;;;;;5032644;28;20449;-79
2023/09/22 06:07:22;;;;;;;2.77;1.40;;;;;;;;;;5035557;28;20784;-80
2023/09/22 06:09:50;;;;;;;2.90;1.83;;;;;;;;;;5036232;28;20479;-79
2023/09/22 06:12:17;;;;;;;2.60;1.57;;;;;;;;;;5032176;28;20439;-79
2023/09/22 06:14:46;;;;;;;2.60;1.23;;;;;;;;;;5036064;28;20438;-80
2023/09/22 06:17:13;;;;;;;4.00;1.67;;;;;;;;;;5035967;28;20433;-79
2023/09/22 06:19:40;;;;;;;1.90;0.80;;;;;;;;;;5036272;28;20426;-77
2023/09/22 06:22:10;;;;;;;2.30;1.10;;;;;;;;;;5015903;28;20510;-79
2023/09/22 06:24:37;;;;;;;2.83;0.87;;;;;;;;;;5016572;28;20474;-79
2023/09/22 06:27:04;;;;;;;4.93;1.33;;;;;;;;;;5016219;28;20960;-79
2023/09/22 06:29:32;;;;;;;5.53;1.70;;;;;;;;;;5034899;28;20485;-78
2023/09/22 06:32:00;;;;;;;3.50;1.97;;;;;;;;;;5035256;28;20557;-79
2023/09/22 06:34:28;;;;;;;2.93;1.90;;;;;;;;;;5031938;28;20524;-79
2023/09/22 06:36:55;;;;;;;3.20;1.20;;;;;;;;;;5036806;28;20512;-78
2023/09/22 06:39:22;;;;;;;3.80;1.33;;;;;;;;;;5050768;28;20449;-78
2023/09/22 06:41:49;;;;;;;4.60;1.27;;;;;;;;;;5054501;28;20483;-78
2023/09/22 06:44:17;;;;;;;3.30;1.23;;;;;;;;;;5055496;28;20540;-78
2023/09/22 06:46:44;;;;;;;3.07;1.23;;;;;;;;;;5053428;28;20478;-77
2023/09/22 06:49:12;;;;;;;2.73;1.10;;;;;;;;;;5035172;28;20709;-78
2023/09/22 06:51:40;;;;;;;3.33;1.50;;;;;;;;;;5035735;28;20445;-78
2023/09/22 06:54:07;;;;;;;3.07;1.33;;;;;;;;;;5035371;28;20475;-78
2023/09/22 06:56:35;;;;;;;2.73;1.20;;;;;;;;;;5054323;28;20426;-78
2023/09/22 06:59:06;;;;;;;3.10;0.93;;;;;;;;;;5055810;28;20797;-78
2023/09/22 07:01:34;;;;;;;2.80;1.47;;;;;;;;;;5055676;28;20958;-78
2023/09/22 07:04:01;;;;;;;2.50;1.20;;;;;;;;;;5055051;28;20444;-78
2023/09/22 07:06:30;;;;;;;2.20;1.00;;;;;;;;;;5055575;28;20445;-78
2023/09/22 07:08:57;;;;;;;3.10;1.23;;;;;;;;;;5055011;28;20442;-78
2023/09/22 07:11:24;;;;;;;3.80;1.20;;;;;;;;;;5055393;28;20477;-78
2023/09/22 07:13:51;;;;;;;3.27;1.57;;;;;;;;;;5054692;28;20558;-78
2023/09/22 07:16:20;;;;;;;4.70;2.63;;;;;;;;;;5054536;28;20465;-78
2023/09/22 07:18:47;;;;;;;2.60;1.00;;;;;;;;;;5055300;28;20497;-78
2023/09/22 07:21:14;;;;;;;2.20;1.00;;;;;;;;;;5054653;28;20954;-78
2023/09/22 07:23:44;;;;;;;2.30;1.00;;;;;;;;;;5055062;28;20448;-77
2023/09/22 07:26:12;;;;;;;2.93;1.33;;;;;;;;;;5054955;28;20535;-78
2023/09/22 07:28:40;;;;;;;2.10;0.80;;;;;;;;;;5054812;28;20434;-78
2023/09/22 07:31:12;;;;;;;2.13;0.87;;;;;;;;;;5054506;28;20500;-77
2023/09/22 07:33:39;;;;;;;3.00;1.10;;;;;;;;;;5054697;28;20441;-78
2023/09/22 07:36:07;;;;;;;2.07;0.80;;;;;;;;;;5054588;28;20433;-77
2023/09/22 07:38:34;;;;;;;2.20;0.90;;;;;;;;;;5054801;28;20532;-77
2023/09/22 07:41:03;;;;;;;3.60;1.33;;;;;;;;;;5054944;28;20437;-77
2023/09/22 07:43:35;;;;;;;3.70;1.77;;;;;;;;;;5054720;28;20442;-77
2023/09/22 07:46:10;;;;;;;3.00;1.10;;;;;;;;;;5054383;28;20426;-77
2023/09/22 07:48:38;;;;;;;2.50;1.30;;;;;;;;;;5054350;28;20940;-78
2023/09/22 07:51:06;;;;;;;2.87;0.80;;;;;;;;;;5054725;28;20477;-77
2023/09/22 07:53:39;;;;;;;2.30;1.00;;;;;;;;;;5054579;28;20441;-77
2023/09/22 07:56:12;;;;;;;2.20;1.00;;;;;;;;;;5054629;28;20441;-77
2023/09/22 07:58:40;;;;;;;3.40;1.00;;;;;;;;;;5054506;28;20786;-77
2023/09/22 08:01:09;;;;;;;2.73;1.10;;;;;;;;;;5054447;28;20526;-77
2023/09/22 08:03:36;;;;;;;3.23;1.07;;;;;;;;;;5054430;28;20575;-77
2023/09/22 08:06:05;;;;;;;3.83;1.10;;;;;;;;;;5054419;28;20460;-77
2023/09/22 08:08:34;;;;;;;5.23;1.00;;;;;;;;;;5054007;28;20916;-78
2023/09/22 08:11:04;;;;;;;2.43;1.00;;;;;;;;;;5053912;28;20572;-77
2023/09/22 08:13:37;;;;;;;2.93;1.53;;;;;;;;;;5054841;28;20438;-75
2023/09/22 08:16:06;;;;;;;2.33;1.00;;;;;;;;;;5051616;28;20474;-76
2023/09/22 08:18:37;;;;;;;3.30;1.63;;;;;;;;;;5053420;28;20454;-76
2023/09/22 08:21:05;;;;;;;2.73;1.27;;;;;;;;;;5053472;28;20440;-75
2023/09/22 08:23:32;;;;;;;2.40;1.10;;;;;;;;;;5053374;28;20536;-75
2023/09/22 08:26:00;;;;;;;2.33;1.30;;;;;;;;;;5053612;28;20457;-75
2023/09/22 08:28:28;;;;;;;2.30;1.10;;;;;;;;;;5053059;28;20452;-75
2023/09/22 08:30:57;;;;;;;2.60;1.13;;;;;;;;;;5053320;28;20531;-76
2023/09/22 08:33:25;;;;;;;5.73;1.20;;;;;;;;;;5053380;28;20480;-76
2023/09/22 08:35:52;;;;;;;4.20;2.10;;;;;;;;;;5053803;28;20433;-76
2023/09/22 08:38:20;;;;;;;8.13;5.33;;;;;;;;;;5053363;28;20467;-75
2023/09/22 08:40:49;;;;;;;20.60;16.90;;;;;;;;;;5053751;28;20498;-75
2023/09/22 08:43:17;;;;;;;10.83;8.63;;;;;;;;;;5052853;28;20436;-75
2023/09/22 08:45:46;;;;;;;10.67;7.63;;;;;;;;;;5053691;28;20869;-75
2023/09/22 08:48:14;;;;;;;6.03;4.50;;;;;;;;;;5053122;28;20440;-75
2023/09/22 08:50:42;;;;;;;6.97;4.90;;;;;;;;;;5053444;28;20538;-75
2023/09/22 08:53:11;;;;;;;7.30;5.47;;;;;;;;;;5053614;28;20842;-75
2023/09/22 08:55:39;;;;;;;11.37;9.50;;;;;;;;;;5053142;28;20825;-76
2023/09/22 08:58:07;;;;;;;13.80;7.83;;;;;;;;;;5053389;28;20437;-75
2023/09/22 09:00:35;;;;;;;8.30;5.43;;;;;;;;;;5052732;28;20460;-75
2023/09/22 09:03:17;;;;;;;4.73;2.43;;;;;;;;;;5053160;28;20441;-75
2023/09/22 09:05:46;;;;;;;4.97;1.77;;;;;;;;;;5053266;28;20792;-75
2023/09/22 09:08:14;;;;;;;2.90;1.50;;;;;;;;;;5053016;28;20523;-75
2023/09/22 09:10:42;;;;;;;2.53;1.63;;;;;;;;;;5052341;28;20547;-76
2023/09/22 09:13:13;;;;;;;2.60;1.20;;;;;;;;;;5052728;28;20437;-75
2023/09/22 09:15:45;;;;;;;2.60;1.13;;;;;;;;;;5052918;28;20488;-75
2023/09/22 09:18:24;;;;;;;5.97;1.20;;;;;;;;;;5052773;28;20863;-75
2023/09/22 09:21:08;;;;;;;4.83;1.20;;;;;;;;;;5052183;28;20425;-75
2023/09/22 09:23:35;;;;;;;2.40;1.20;;;;;;;;;;5052921;28;20422;-75
2023/09/22 09:26:02;;;;;;;2.80;1.77;;;;;;;;;;5052566;28;20499;-75
2023/09/22 09:28:30;;;;;;;3.23;2.60;;;;;;;;;;5053153;28;20495;-75
2023/09/22 09:30:58;;;;;;;3.50;2.10;;;;;;;;;;5052382;28;20554;-75
2023/09/22 09:33:26;;;;;;;2.20;1.37;;;;;;;;;;5052772;28;20496;-76
2023/09/22 09:36:01;;;;;;;2.70;1.40;;;;;;;;;;5052536;28;20445;-75
2023/09/22 09:38:29;;;;;;;3.37;1.80;;;;;;;;;;5052493;28;20452;-76
2023/09/22 09:40:58;;;;;;;6.40;3.47;;;;;;;;;;5052156;28;20472;-75
2023/09/22 09:43:25;;;;;;;5.13;3.37;;;;;;;;;;5052491;28;20509;-75
2023/09/22 09:45:59;;;;;;;4.73;2.90;;;;;;;;;;5052928;28;20441;-76
2023/09/22 09:48:27;;;;;;;4.50;2.60;;;;;;;;;;5052546;28;20795;-75
2023/09/22 09:50:57;;;;;;;4.30;1.20;;;;;;;;;;5052384;28;20505;-75
2023/09/22 09:53:31;;;;;;;3.07;1.47;;;;;;;;;;5052294;28;20912;-75
2023/09/22 09:56:00;;;;;;;2.40;1.07;;;;;;;;;;5052230;28;20479;-75
2023/09/22 09:58:32;;;;;;;2.30;1.10;;;;;;;;;;5052204;28;20433;-76
2023/09/22 10:00:59;;;;;;;3.67;1.27;;;;;;;;;;5052366;28;20477;-75
2023/09/22 10:03:27;;;;;;;2.50;1.67;;;;;;;;;;5052130;28;20434;-75
2023/09/22 10:05:58;;;;;;;3.50;1.10;;;;;;;;;;5052449;28;20440;-76
2023/09/22 10:08:28;;;;;;;3.37;1.20;;;;;;;;;;5052474;28;20757;-75
2023/09/22 10:10:56;;;;;;;5.60;1.20;;;;;;;;;;5049751;28;20566;-75
2023/09/22 10:13:23;;;;;;;2.20;1.00;;;;;;;;;;5052730;28;20449;-75
2023/09/22 10:15:58;;;;;;;2.10;0.93;;;;;;;;;;5052328;28;20441;-75
2023/09/22 10:18:40;;;;;;;3.67;1.20;;;;;;;;;;5052158;28;20499;-75
2023/09/22 10:21:08;;;;;;;4.40;1.33;;;;;;;;;;5051834;28;20449;-75
2023/09/22 10:23:36;;;;;;;5.30;1.13;;;;;;;;;;5051865;28;20912;-75
2023/09/22 10:26:19;;;;;;;3.50;1.90;;;;;;;;;;5051915;28;20560;-76
2023/09/22 10:28:47;;;;;;;2.40;0.90;;;;;;;;;;5050523;28;20444;-75
2023/09/22 10:31:17;;;;;;;2.47;0.90;;;;;;;;;;5051892;28;20477;-75
2023/09/22 10:33:46;;;;;;;2.43;0.93;;;;;;;;;;5051898;28;20429;-76
2023/09/22 10:36:35;;;;;;;2.33;1.00;;;;;;;;;;5051898;28;20491;-75
2023/09/22 10:39:05;;;;;;;2.33;1.00;;;;;;;;;;5051780;28;20503;-76
2023/09/22 10:41:35;;;;;;;2.10;0.93;;;;;;;;;;5051866;28;20441;-76
2023/09/22 10:44:02;;;;;;;4.43;1.00;;;;;;;;;;5051744;28;20480;-75
2023/09/22 10:46:34;;;;;;;2.10;0.83;;;;;;;;;;5051622;28;20931;-75
2023/09/22 10:49:01;;;;;;;2.30;1.00;;;;;;;;;;5051906;28;20457;-75
2023/09/22 10:51:43;;;;;;;2.83;1.10;;;;;;;;;;5052110;28;20472;-75
2023/09/22 10:54:12;;;;;;;2.27;1.07;;;;;;;;;;5055685;28;20433;-75
2023/09/22 10:56:40;;;;;;;2.20;1.00;;;;;;;;;;5055387;28;20469;-75
2023/09/22 10:59:12;;;;;;;2.10;0.90;;;;;;;;;;5055719;28;20434;-75
2023/09/22 11:01:46;;;;;;;2.63;1.23;;;;;;;;;;5055742;28;20484;-76
2023/09/22 11:04:13;;;;;;;3.03;0.87;;;;;;;;;;5055453;28;20441;-75
2023/09/22 11:06:46;;;;;;;3.27;1.00;;;;;;;;;;5055485;28;20445;-75
2023/09/22 11:09:15;;;;;;;2.07;0.70;;;;;;;;;;5054802;28;20448;-75
2023/09/22 11:11:46;;;;;;;2.87;0.87;;;;;;;;;;5055142;28;20534;-75
2023/09/22 11:14:14;;;;;;;2.40;1.00;;;;;;;;;;5055036;28;20498;-75
2023/09/22 11:16:49;;;;;;;3.13;2.03;;;;;;;;;;5055107;28;20441;-75
2023/09/22 11:19:18;;;;;;;2.83;1.03;;;;;;;;;;5055185;28;20513;-75
2023/09/22 11:21:47;;;;;;;2.27;0.90;;;;;;;;;;5054698;28;20426;-75
2023/09/22 11:24:16;;;;;;;2.90;1.00;;;;;;;;;;5054203;28;20803;-75
2023/09/22 11:26:43;;;;;;;3.23;1.00;;;;;;;;;;5044478;28;20442;-75
2023/09/22 11:29:11;;;;;;;2.73;1.03;;;;;;;;;;5034720;28;20472;-75
2023/09/22 11:31:49;;;;;;;5.07;1.10;;;;;;;;;;5034994;28;20474;-75
2023/09/22 11:34:16;;;;;;;2.33;1.07;;;;;;;;;;5034708;28;20452;-75
2023/09/22 11:36:47;;;;;;;2.67;1.13;;;;;;;;;;5034602;28;20504;-75
2023/09/22 11:39:26;;;;;;;3.30;1.10;;;;;;;;;;5034943;28;20438;-75
2023/09/22 11:41:54;;;;;;;2.30;0.70;;;;;;;;;;5047366;28;20426;-75
2023/09/22 11:44:21;;;;;;;2.33;0.90;;;;;;;;;;5039278;28;20862;-75
2023/09/22 11:46:49;;;;;;;2.20;1.00;;;;;;;;;;5033868;28;20484;-75
2023/09/22 11:49:20;;;;;;;2.27;1.10;;;;;;;;;;5034747;28;20446;-75
2023/09/22 11:51:50;;;;;;;2.30;1.00;;;;;;;;;;5047711;28;20489;-76
2023/09/22 11:54:19;;;;;;;2.40;1.00;;;;;;;;;;5045599;28;20805;-76
2023/09/22 11:56:48;;;;;;;2.00;0.80;;;;;;;;;;5034213;28;20453;-76
2023/09/22 11:59:21;;;;;;;2.13;0.80;;;;;;;;;;5033563;28;20920;-76
2023/09/22 12:01:50;;;;;;;3.10;0.90;;;;;;;;;;5033738;28;20466;-76
2023/09/22 12:04:19;;;;;;;2.00;0.80;;;;;;;;;;5048867;28;20469;-76
2023/09/22 12:06:48;;;;;;;1.70;0.60;;;;;;;;;;5037557;28;20434;-76
2023/09/22 12:09:16;;;;;;;1.77;0.57;;;;;;;;;;5033911;28;20442;-75
2023/09/22 12:11:44;;;;;;;2.60;1.10;;;;;;;;;;5034066;28;20828;-76
2023/09/22 12:14:13;;;;;;;1.93;0.60;;;;;;;;;;5034099;28;20448;-75
2023/09/22 12:16:43;;;;;;;1.90;0.73;;;;;;;;;;5034273;28;20492;-76
2023/09/22 12:19:10;;;;;;;2.10;1.13;;;;;;;;;;5034440;28;20423;-76
2023/09/22 12:21:38;;;;;;;2.30;0.80;;;;;;;;;;5033787;28;20438;-76
2023/09/22 12:24:05;;;;;;;2.33;0.80;;;;;;;;;;5033795;28;20439;-76
2023/09/22 12:26:33;;;;;;;3.60;0.90;;;;;;;;;;5033722;28;20478;-75
2023/09/22 12:29:04;;;;;;;2.93;0.90;;;;;;;;;;5033688;28;20922;-76
2023/09/22 12:31:33;;;;;;;2.70;0.87;;;;;;;;;;5033946;28;20557;-76
2023/09/22 12:34:01;;;;;;;4.50;1.40;;;;;;;;;;5033824;28;20515;-76
2023/09/22 12:36:29;;;;;;;7.63;4.50;;;;;;;;;;5033848;28;20446;-76
2023/09/22 12:38:57;;;;;;;4.20;1.87;;;;;;;;;;5034072;28;20434;-76
2023/09/22 12:41:24;;;;;;;4.70;1.73;;;;;;;;;;5033822;28;20482;-76
2023/09/22 12:43:51;;;;;;;3.43;1.20;;;;;;;;;;5033657;28;20430;-76
2023/09/22 12:46:18;;;;;;;8.13;3.00;;;;;;;;;;5033634;28;20583;-76
2023/09/22 12:48:47;;;;;;;5.27;1.40;;;;;;;;;;5033554;28;20438;-76
2023/09/22 12:51:15;;;;;;;3.67;1.67;;;;;;;;;;5033184;28;20516;-76
2023/09/22 12:53:42;;;;;;;2.83;1.00;;;;;;;;;;5033342;28;20964;-75
2023/09/22 12:56:09;;;;;;;2.73;1.17;;;;;;;;;;5033622;28;20446;-76
2023/09/22 12:58:38;;;;;;;2.43;1.10;;;;;;;;;;5033201;28;20442;-75
2023/09/22 13:01:05;;;;;;;24.67;21.10;;;;;;;;;;5032921;28;21006;-76
2023/09/22 13:03:33;;;;;;;4.30;2.80;;;;;;;;;;5032791;28;20497;-76
2023/09/22 13:06:03;;;;;;;2.70;1.10;;;;;;;;;;5033490;28;20470;-75
2023/09/22 13:08:32;;;;;;;3.80;0.80;;;;;;;;;;5032942;28;20928;-76
2023/09/22 13:11:00;;;;;;;2.60;0.90;;;;;;;;;;5033138;28;20561;-75
2023/09/22 13:13:27;;;;;;;28.67;18.77;;;;;;;;;;5033104;28;20434;-75
2023/09/22 13:15:54;;;;;;;27.87;21.70;;;;;;;;;;5032510;28;20438;-76
2023/09/22 13:18:22;;;;;;;14.20;10.67;;;;;;;;;;5032608;28;20614;-76
2023/09/22 13:20:49;;;;;;;9.37;6.70;;;;;;;;;;5032637;28;20433;-76
2023/09/22 13:23:18;;;;;;;6.97;5.30;;;;;;;;;;5032822;28;20438;-75
2023/09/22 13:25:48;;;;;;;5.60;3.30;;;;;;;;;;5032542;28;20481;-75
2023/09/22 13:28:16;;;;;;;5.53;3.53;;;;;;;;;;5032689;28;20426;-76
2023/09/22 13:30:46;;;;;;;9.90;4.83;;;;;;;;;;5032518;28;20488;-75
2023/09/22 13:33:14;;;;;;;4.10;1.97;;;;;;;;;;5032965;28;20930;-76
2023/09/22 13:35:42;;;;;;;9.77;8.80;;;;;;;;;;5032533;28;20529;-76
2023/09/22 13:38:09;;;;;;;3.30;1.90;;;;;;;;;;5032668;28;20819;-76
2023/09/22 13:40:40;;;;;;;3.57;1.70;;;;;;;;;;5032826;28;20437;-75
2023/09/22 13:43:07;;;;;;;3.30;1.47;;;;;;;;;;5032527;28;20434;-75
2023/09/22 13:45:36;;;;;;;2.13;0.87;;;;;;;;;;5032071;28;20492;-75
2023/09/22 13:48:04;;;;;;;2.00;0.90;;;;;;;;;;5032298;28;20466;-76
2023/09/22 13:50:32;;;;;;;1.90;0.70;;;;;;;;;;5032678;28;20442;-75
2023/09/22 13:52:59;;;;;;;2.40;1.00;;;;;;;;;;5032269;28;20564;-76
2023/09/22 13:55:26;;;;;;;2.97;1.10;;;;;;;;;;5032748;28;20441;-75
2023/09/22 13:57:55;;;;;;;3.07;1.63;;;;;;;;;;5032577;28;20434;-75
2023/09/22 14:00:22;;;;;;;2.63;1.27;;;;;;;;;;5032105;28;20458;-75
2023/09/22 14:02:51;;;;;;;2.47;0.90;;;;;;;;;;5032625;28;20526;-76
2023/09/22 14:05:18;;;;;;;4.07;2.00;;;;;;;;;;5032786;28;20446;-76
2023/09/22 14:07:47;;;;;;;5.80;1.53;;;;;;;;;;5032475;28;20844;-75
2023/09/22 14:10:14;;;;;;;3.90;1.60;;;;;;;;;;5032491;28;20812;-75
2023/09/22 14:12:41;;;;;;;6.43;2.07;;;;;;;;;;5032264;28;20809;-76
2023/09/22 14:15:10;;;;;;;3.93;1.77;;;;;;;;;;5032290;28;20558;-76
2023/09/22 14:17:38;;;;;;;3.87;1.33;;;;;;;;;;5032346;28;20807;-75
2023/09/22 14:20:06;;;;;;;2.10;1.10;;;;;;;;;;5031770;28;20443;-75
2023/09/22 14:22:34;;;;;;;11.20;3.20;;;;;;;;;;5032505;28;20495;-75
2023/09/22 14:25:03;;;;;;;3.40;2.10;;;;;;;;;;5031958;28;20984;-75
2023/09/22 14:27:30;;;;;;;2.73;1.50;;;;;;;;;;5034108;28;20439;-76
2023/09/22 14:29:59;;;;;;;2.77;1.47;;;;;;;;;;5036257;28;20781;-76
2023/09/22 14:32:28;;;;;;;2.20;1.30;;;;;;;;;;5036341;28;20478;-76
2023/09/22 14:34:55;;;;;;;3.27;1.50;;;;;;;;;;5035925;28;20531;-76
2023/09/22 14:37:23;;;;;;;3.50;1.33;;;;;;;;;;5036244;28;20473;-76
2023/09/22 14:39:56;;;;;;;2.20;1.20;;;;;;;;;;5036019;28;20597;-76
2023/09/22 14:42:24;;;;;;;3.57;1.10;;;;;;;;;;5035766;28;20492;-76
2023/09/22 14:44:51;;;;;;;3.07;0.90;;;;;;;;;;5035527;28;20439;-76
2023/09/22 14:47:18;;;;;;;2.23;0.93;;;;;;;;;;5035859;28;20441;-76
2023/09/22 14:49:47;;;;;;;2.67;1.00;;;;;;;;;;5035920;28;20441;-75
2023/09/22 14:52:14;;;;;;;3.63;1.30;;;;;;;;;;5035865;28;20549;-76